createdAt,value
2023-01-29T00:00:10.356Z,4.07
2023-01-29T00:02:41.396Z,4.10
2023-01-29T00:05:26.520Z,4.68
2023-01-29T00:07:55.644Z,3.45
2023-01-29T00:10:24.717Z,3.40
2023-01-29T00:12:54.378Z,4.10
2023-01-29T00:15:22.247Z,3.05
2023-01-29T00:17:51.947Z,3.88
2023-01-29T00:20:20.077Z,3.75
2023-01-29T00:22:47.926Z,4.13
2023-01-29T00:25:15.720Z,5.63
2023-01-29T00:27:46.503Z,5.53
2023-01-29T00:30:16.714Z,4.78
2023-01-29T00:32:45.180Z,4.80
2023-01-29T00:35:13.738Z,4.22
2023-01-29T00:37:42.128Z,4.65
2023-01-29T00:40:10.902Z,4.45
2023-01-29T00:42:57.266Z,4.43
2023-01-29T00:45:25.145Z,4.78
2023-01-29T00:47:53.538Z,5.15
2023-01-29T00:50:22.288Z,5.43
2023-01-29T00:52:51.987Z,5.28
2023-01-29T00:55:19.987Z,4.75
2023-01-29T00:57:47.933Z,5.65
2023-01-29T01:00:17.997Z,5.50
2023-01-29T01:03:04.811Z,4.70
2023-01-29T01:05:33.191Z,5.03
2023-01-29T01:08:00.904Z,4.55
2023-01-29T01:10:33.355Z,4.57
2023-01-29T01:13:04.911Z,5.57
2023-01-29T01:18:05.171Z,3.38
2023-01-29T01:20:35.486Z,4.88
2023-01-29T01:23:03.703Z,4.82
2023-01-29T01:25:31.793Z,4.65
2023-01-29T01:28:03.317Z,4.78
2023-01-29T01:30:31.403Z,4.28
2023-01-29T01:32:59.958Z,4.88
2023-01-29T01:35:28.063Z,5.10
2023-01-29T01:37:56.121Z,5.05
2023-01-29T01:40:25.567Z,4.40
2023-01-29T01:42:58.561Z,4.45
2023-01-29T01:45:35.506Z,5.68
2023-01-29T01:48:17.414Z,5.40
2023-01-29T01:50:52.801Z,5.22
2023-01-29T01:53:27.416Z,6.20
2023-01-29T01:55:59.491Z,4.93
2023-01-29T01:58:44.324Z,5.20
2023-01-29T02:01:13.065Z,5.85
2023-01-29T02:04:15.201Z,5.53
2023-01-29T02:07:01.474Z,5.10
2023-01-29T02:09:53.483Z,5.95
2023-01-29T02:12:23.136Z,6.15
2023-01-29T02:14:52.685Z,5.18
2023-01-29T02:17:21.636Z,5.35
2023-01-29T02:20:11.019Z,4.80
2023-01-29T02:22:47.235Z,5.07
2023-01-29T02:25:43.224Z,5.80
2023-01-29T02:28:29.483Z,5.72
2023-01-29T02:31:36.365Z,4.95
2023-01-29T02:34:11.287Z,4.40
2023-01-29T02:36:46.410Z,4.95
2023-01-29T02:39:34.280Z,4.57
2023-01-29T02:42:27.571Z,4.55
2023-01-29T02:45:42.133Z,4.78
2023-01-29T02:48:16.157Z,4.55
2023-01-29T02:50:45.615Z,4.57
2023-01-29T02:53:19.475Z,5.68
2023-01-29T02:55:56.231Z,5.82
2023-01-29T02:58:35.015Z,5.47
2023-01-29T03:01:32.430Z,5.53
2023-01-29T03:04:13.682Z,5.57
2023-01-29T03:06:55.522Z,6.00
2023-01-29T03:09:45.031Z,4.57
2023-01-29T03:12:36.565Z,4.43
2023-01-29T03:17:54.993Z,4.15
2023-01-29T03:20:29.587Z,5.85
2023-01-29T03:23:05.934Z,6.05
2023-01-29T03:25:54.779Z,6.30
2023-01-29T03:28:43.711Z,7.10
2023-01-29T03:31:31.798Z,6.55
2023-01-29T03:34:19.331Z,6.05
2023-01-29T03:37:00.356Z,6.60
2023-01-29T03:39:29.134Z,6.32
2023-01-29T03:42:31.790Z,5.85
2023-01-29T03:45:12.787Z,6.55
2023-01-29T03:47:55.243Z,6.32
2023-01-29T03:50:38.766Z,5.97
2023-01-29T03:53:36.677Z,7.50
2023-01-29T03:56:07.415Z,6.90
2023-01-29T03:58:43.470Z,7.35
2023-01-29T04:01:25.706Z,6.47
2023-01-29T04:04:12.829Z,7.95
2023-01-29T04:06:43.820Z,7.05
2023-01-29T04:09:13.395Z,6.05
2023-01-29T04:11:48.702Z,6.53
2023-01-29T04:14:17.232Z,6.93
2023-01-29T04:16:51.278Z,6.63
2023-01-29T04:19:33.546Z,7.18
2023-01-29T04:22:11.554Z,6.38
2023-01-29T04:24:39.423Z,6.57
2023-01-29T04:27:40.930Z,5.97
2023-01-29T04:30:27.179Z,7.03
2023-01-29T04:33:08.523Z,6.78
2023-01-29T04:35:45.451Z,7.50
2023-01-29T04:38:20.187Z,6.93
2023-01-29T04:40:59.736Z,5.95
2023-01-29T04:43:40.038Z,7.50
2023-01-29T04:46:20.492Z,6.63
2023-01-29T04:49:21.364Z,6.90
2023-01-29T04:52:01.064Z,6.72
2023-01-29T04:54:40.760Z,7.82
2023-01-29T04:57:16.053Z,6.47
2023-01-29T04:59:48.085Z,6.90
2023-01-29T05:02:15.895Z,6.82
2023-01-29T05:04:48.449Z,6.50
2023-01-29T05:07:16.588Z,5.75
2023-01-29T05:09:46.215Z,6.22
2023-01-29T05:12:16.243Z,5.90
2023-01-29T05:14:46.098Z,5.97
2023-01-29T05:17:17.172Z,6.05
2023-01-29T05:19:45.499Z,5.93
2023-01-29T05:22:15.881Z,5.57
2023-01-29T05:24:43.727Z,5.60
2023-01-29T05:27:53.901Z,5.78
2023-01-29T05:30:21.754Z,5.28
2023-01-29T05:32:49.450Z,5.32
2023-01-29T05:35:17.377Z,5.68
2023-01-29T05:37:45.975Z,5.78
2023-01-29T05:40:14.061Z,5.88
2023-01-29T05:42:42.279Z,7.18
2023-01-29T05:45:10.620Z,5.80
2023-01-29T05:47:38.278Z,5.90
2023-01-29T05:50:06.596Z,6.25
2023-01-29T05:52:34.404Z,7.47
2023-01-29T05:55:02.308Z,6.93
2023-01-29T05:57:30.144Z,7.45
2023-01-29T05:59:57.868Z,7.57
2023-01-29T06:02:25.784Z,7.68
2023-01-29T06:04:53.804Z,7.47
2023-01-29T06:07:21.515Z,7.15
2023-01-29T06:09:51.971Z,7.60
2023-01-29T06:12:19.898Z,8.80
2023-01-29T06:14:47.714Z,8.60
2023-01-29T06:17:15.415Z,8.48
2023-01-29T06:19:43.290Z,7.53
2023-01-29T06:22:11.286Z,8.60
2023-01-29T06:24:39.208Z,7.85
2023-01-29T06:27:07.055Z,8.20
2023-01-29T06:29:35.358Z,8.15
2023-01-29T06:32:03.509Z,8.40
2023-01-29T06:34:31.696Z,7.60
2023-01-29T06:36:59.533Z,8.25
2023-01-29T06:39:27.512Z,8.93
2023-01-29T06:41:55.509Z,8.15
2023-01-29T06:44:23.341Z,8.75
2023-01-29T06:46:51.076Z,8.25
2023-01-29T06:49:21.375Z,9.00
2023-01-29T06:51:49.053Z,8.65
2023-01-29T06:54:16.878Z,8.38
2023-01-29T06:56:44.625Z,9.90
2023-01-29T06:59:13.165Z,8.85
2023-01-29T07:01:42.530Z,8.80
2023-01-29T07:04:13.288Z,8.27
2023-01-29T07:06:41.817Z,8.98
2023-01-29T07:09:11.739Z,8.68
2023-01-29T07:11:39.891Z,8.95
2023-01-29T07:14:07.746Z,8.30
2023-01-29T07:16:36.034Z,9.13
2023-01-29T07:19:03.866Z,7.78
2023-01-29T07:21:31.825Z,9.05
2023-01-29T07:23:59.804Z,6.60
2023-01-29T07:26:27.923Z,8.95
2023-01-29T07:28:55.905Z,8.45
2023-01-29T07:31:24.062Z,7.75
2023-01-29T07:33:51.988Z,8.00
2023-01-29T07:36:19.874Z,7.15
2023-01-29T07:38:51.128Z,8.52
2023-01-29T07:41:19.132Z,8.48
2023-01-29T07:43:48.447Z,8.43
2023-01-29T07:46:16.642Z,8.98
2023-01-29T07:48:44.544Z,10.18
2023-01-29T07:51:12.496Z,9.00
2023-01-29T07:53:40.485Z,9.65
2023-01-29T07:56:08.713Z,9.13
2023-01-29T07:58:36.936Z,7.78
2023-01-29T08:01:08.634Z,7.47
2023-01-29T08:03:36.529Z,7.20
2023-01-29T08:06:05.119Z,8.18
2023-01-29T08:08:34.883Z,8.25
2023-01-29T08:11:06.805Z,7.47
2023-01-29T08:13:34.874Z,7.90
2023-01-29T08:16:03.585Z,7.55
2023-01-29T08:18:31.803Z,7.32
2023-01-29T08:21:03.871Z,7.53
2023-01-29T08:23:31.748Z,7.45
2023-01-29T08:25:59.966Z,7.88
2023-01-29T08:28:28.135Z,7.57
2023-01-29T08:30:56.134Z,8.07
2023-01-29T08:33:38.007Z,8.75
2023-01-29T08:36:07.608Z,7.72
2023-01-29T08:38:36.533Z,8.57
2023-01-29T08:41:04.664Z,9.05
2023-01-29T08:43:32.506Z,7.68
2023-01-29T08:46:00.422Z,7.72
2023-01-29T08:48:30.361Z,7.63
2023-01-29T08:51:00.239Z,8.00
2023-01-29T08:53:28.607Z,8.18
2023-01-29T08:55:56.716Z,8.45
2023-01-29T08:58:24.554Z,7.90
2023-01-29T09:00:52.390Z,7.38
2023-01-29T09:03:20.184Z,8.20
2023-01-29T09:05:50.904Z,8.70
2023-01-29T09:08:21.001Z,8.25
2023-01-29T09:10:48.918Z,7.35
2023-01-29T09:13:16.868Z,8.27
2023-01-29T09:15:44.879Z,7.28
2023-01-29T09:18:12.717Z,8.68
2023-01-29T09:20:40.551Z,8.43
2023-01-29T09:23:09.649Z,8.45
2023-01-29T09:25:38.525Z,9.05
2023-01-29T09:28:06.877Z,7.47
2023-01-29T09:30:37.886Z,7.60
2023-01-29T09:33:06.821Z,7.45
2023-01-29T09:35:35.067Z,7.90
2023-01-29T09:38:03.001Z,9.02
2023-01-29T09:40:48.464Z,8.77
2023-01-29T09:43:17.569Z,7.88
2023-01-29T09:45:58.725Z,7.40
2023-01-29T09:48:29.209Z,7.85
2023-01-29T09:50:59.178Z,8.80
2023-01-29T09:53:32.822Z,7.85
2023-01-29T09:56:09.355Z,8.23
2023-01-29T09:58:42.388Z,8.20
2023-01-29T10:01:31.683Z,7.88
2023-01-29T10:04:20.769Z,7.95
2023-01-29T10:06:48.525Z,8.10
2023-01-29T10:09:51.714Z,8.82
2023-01-29T10:13:00.725Z,8.13
2023-01-29T10:15:38.267Z,7.85
2023-01-29T10:18:27.106Z,6.93
2023-01-29T10:20:58.140Z,6.90
2023-01-29T10:23:59.526Z,7.75
2023-01-29T10:26:28.717Z,7.60
2023-01-29T10:28:57.683Z,7.53
2023-01-29T10:31:34.464Z,7.72
2023-01-29T10:34:14.924Z,7.80
2023-01-29T10:36:51.920Z,7.80
2023-01-29T10:39:22.116Z,7.90
2023-01-29T10:42:20.224Z,7.20
2023-01-29T10:45:03.193Z,6.78
2023-01-29T10:47:37.118Z,7.20
2023-01-29T10:50:17.039Z,7.75
2023-01-29T10:52:52.047Z,7.22
2023-01-29T10:55:38.729Z,8.10
2023-01-29T10:58:42.122Z,7.50
2023-01-29T11:01:13.011Z,7.15
2023-01-29T11:03:40.855Z,8.00
2023-01-29T11:06:14.882Z,7.63
2023-01-29T11:09:17.576Z,7.72
2023-01-29T11:11:54.977Z,6.97
2023-01-29T11:14:28.851Z,6.50
2023-01-29T11:16:56.851Z,7.78
2023-01-29T11:19:39.554Z,7.43
2023-01-29T11:22:17.461Z,6.93
2023-01-29T11:24:45.375Z,7.65
2023-01-29T11:27:35.702Z,7.20
2023-01-29T11:30:04.181Z,8.02
2023-01-29T11:32:35.605Z,9.48
2023-01-29T11:35:06.788Z,8.40
2023-01-29T11:37:39.989Z,8.52
2023-01-29T11:40:23.136Z,8.80
2023-01-29T11:42:54.032Z,7.25
2023-01-29T11:45:34.011Z,8.10
2023-01-29T11:48:02.227Z,7.93
2023-01-29T11:50:34.580Z,8.57
2023-01-29T11:53:02.835Z,7.85
2023-01-29T11:55:49.853Z,6.97
2023-01-29T11:58:23.045Z,6.63
2023-01-29T12:00:55.660Z,7.55
2023-01-29T12:03:31.615Z,7.50
2023-01-29T12:06:18.175Z,7.35
2023-01-29T12:08:46.039Z,7.00
2023-01-29T12:11:17.420Z,6.80
2023-01-29T12:13:45.234Z,7.40
2023-01-29T12:16:12.914Z,7.63
2023-01-29T12:18:45.110Z,7.00
2023-01-29T12:21:41.147Z,7.72
2023-01-29T12:24:46.489Z,7.35
2023-01-29T12:27:40.719Z,7.25
2023-01-29T12:30:37.290Z,8.20
2023-01-29T12:33:34.269Z,7.15
2023-01-29T12:36:16.101Z,6.85
2023-01-29T12:38:45.607Z,7.95
2023-01-29T12:41:29.170Z,7.32
2023-01-29T12:44:16.774Z,7.07
2023-01-29T12:46:57.407Z,6.72
2023-01-29T12:49:32.622Z,7.97
2023-01-29T12:52:14.965Z,7.38
2023-01-29T12:55:04.742Z,7.20
2023-01-29T12:57:39.452Z,6.53
2023-01-29T13:00:30.428Z,7.05
2023-01-29T13:03:02.941Z,6.72
2023-01-29T13:05:46.518Z,7.90
2023-01-29T13:08:26.156Z,6.93
2023-01-29T13:10:55.413Z,7.28
2023-01-29T13:13:28.751Z,7.38
2023-01-29T13:15:57.590Z,7.55
2023-01-29T13:18:40.451Z,6.78
2023-01-29T13:21:18.016Z,7.63
2023-01-29T13:24:09.539Z,7.07
2023-01-29T13:26:38.055Z,7.75
2023-01-29T13:29:06.265Z,9.88
2023-01-29T13:31:41.428Z,7.78
2023-01-29T13:34:28.631Z,8.57
2023-01-29T13:36:59.535Z,7.60
2023-01-29T13:39:37.717Z,7.25
2023-01-29T13:42:26.286Z,7.45
2023-01-29T13:44:58.265Z,7.22
2023-01-29T13:47:31.100Z,6.43
2023-01-29T13:50:21.362Z,6.60
2023-01-29T13:53:02.321Z,7.10
2023-01-29T13:55:37.050Z,7.22
2023-01-29T13:58:06.464Z,7.32
2023-01-29T14:00:34.319Z,6.50
2023-01-29T14:03:02.035Z,7.10
2023-01-29T14:05:34.084Z,6.50
2023-01-29T14:08:05.849Z,7.00
2023-01-29T14:10:38.610Z,6.35
2023-01-29T14:13:18.589Z,7.00
2023-01-29T14:16:10.878Z,6.50
2023-01-29T14:18:55.542Z,6.45
2023-01-29T14:21:32.773Z,5.72
2023-01-29T14:24:21.089Z,5.60
2023-01-29T14:26:49.778Z,6.18
2023-01-29T14:29:32.585Z,5.88
2023-01-29T14:32:07.553Z,6.72
2023-01-29T14:34:47.998Z,7.00
2023-01-29T14:37:15.697Z,5.72
2023-01-29T14:39:46.370Z,5.82
2023-01-29T14:42:34.287Z,5.43
2023-01-29T14:45:27.207Z,5.20
2023-01-29T14:48:00.455Z,6.03
2023-01-29T14:50:35.112Z,5.90
2023-01-29T14:53:12.208Z,5.75
2023-01-29T14:55:49.106Z,5.82
2023-01-29T14:58:30.150Z,5.93
2023-01-29T15:00:59.410Z,5.87
2023-01-29T15:03:27.093Z,5.53
2023-01-29T15:05:55.444Z,4.85
2023-01-29T15:09:19.149Z,5.25
2023-01-29T15:12:03.314Z,5.40
2023-01-29T15:14:32.361Z,6.55
2023-01-29T15:17:17.300Z,5.55
2023-01-29T15:19:50.761Z,5.18
2023-01-29T15:22:20.674Z,5.47
2023-01-29T15:25:03.493Z,5.30
2023-01-29T15:27:32.114Z,5.50
2023-01-29T15:30:04.184Z,4.35
2023-01-29T15:32:39.775Z,4.83
2023-01-29T15:35:36.222Z,5.35
2023-01-29T15:38:07.733Z,4.90
2023-01-29T15:40:40.203Z,4.55
2023-01-29T15:43:31.795Z,4.93
2023-01-29T15:46:05.589Z,6.30
2023-01-29T15:48:40.792Z,4.40
2023-01-29T15:51:12.238Z,4.40
2023-01-29T15:53:49.741Z,4.20
2023-01-29T15:56:24.749Z,4.60
2023-01-29T15:58:55.333Z,5.60
2023-01-29T16:01:26.492Z,4.43
2023-01-29T16:03:56.031Z,4.82
2023-01-29T16:06:25.417Z,5.10
2023-01-29T16:08:54.807Z,4.63
2023-01-29T16:11:23.482Z,5.18
2023-01-29T16:13:51.876Z,5.25
2023-01-29T16:16:25.735Z,4.97
2023-01-29T16:19:00.386Z,5.38
2023-01-29T16:21:40.191Z,5.65
2023-01-29T16:24:16.049Z,5.40
2023-01-29T16:26:48.016Z,5.45
2023-01-29T16:29:18.780Z,5.25
2023-01-29T16:31:48.846Z,5.03
2023-01-29T16:34:26.482Z,5.82
2023-01-29T16:36:55.329Z,5.65
2023-01-29T16:39:25.593Z,5.47
2023-01-29T16:42:20.974Z,4.80
2023-01-29T16:45:00.493Z,4.93
2023-01-29T16:47:35.526Z,4.65
2023-01-29T16:50:46.193Z,4.63
2023-01-29T16:53:23.472Z,4.55
2023-01-29T16:55:52.620Z,5.00
2023-01-29T16:58:25.607Z,4.70
2023-01-29T17:01:06.403Z,4.80
2023-01-29T17:03:35.227Z,4.70
2023-01-29T17:06:11.125Z,4.90
2023-01-29T17:08:41.254Z,5.43
2023-01-29T17:11:11.182Z,5.18
2023-01-29T17:13:41.742Z,5.47
2023-01-29T17:16:15.924Z,5.82
2023-01-29T17:18:43.901Z,5.45
2023-01-29T17:21:13.937Z,5.10
2023-01-29T17:23:44.728Z,5.68
2023-01-29T17:26:14.517Z,5.10
2023-01-29T17:28:42.622Z,5.05
2023-01-29T17:31:11.190Z,5.57
2023-01-29T17:33:47.263Z,5.38
2023-01-29T17:36:18.768Z,4.90
2023-01-29T17:38:46.955Z,5.13
2023-01-29T17:41:25.252Z,5.60
2023-01-29T17:43:53.115Z,5.70
2023-01-29T17:46:21.220Z,5.90
2023-01-29T17:48:52.624Z,4.72
2023-01-29T17:51:20.492Z,6.00
2023-01-29T17:53:51.987Z,5.55
2023-01-29T17:56:29.707Z,5.45
2023-01-29T17:58:57.633Z,5.70
2023-01-29T18:01:25.608Z,5.95
2023-01-29T18:03:53.454Z,5.55
2023-01-29T18:06:28.941Z,6.00
2023-01-29T18:08:56.902Z,6.15
2023-01-29T18:11:25.000Z,5.72
2023-01-29T18:13:52.706Z,5.38
2023-01-29T18:16:25.125Z,5.22
2023-01-29T18:18:54.151Z,5.65
2023-01-29T18:21:22.934Z,5.97
2023-01-29T18:23:50.775Z,5.50
2023-01-29T18:26:18.812Z,5.55
2023-01-29T18:28:46.550Z,5.18
2023-01-29T18:31:14.805Z,5.07
2023-01-29T18:33:42.892Z,4.40
2023-01-29T18:36:12.659Z,5.95
2023-01-29T18:38:40.758Z,5.18
2023-01-29T18:41:12.868Z,5.43
2023-01-29T18:43:41.974Z,4.45
2023-01-29T18:46:10.251Z,4.57
2023-01-29T18:48:38.946Z,4.75
2023-01-29T18:51:07.791Z,4.25
2023-01-29T18:53:35.671Z,5.30
2023-01-29T18:56:05.805Z,4.18
2023-01-29T18:58:36.678Z,4.72
2023-01-29T19:01:11.928Z,5.18
2023-01-29T19:03:41.226Z,5.30
2023-01-29T19:06:10.910Z,5.00
2023-01-29T19:08:39.152Z,4.70
2023-01-29T19:11:09.002Z,5.38
2023-01-29T19:13:38.209Z,4.88
2023-01-29T19:16:10.701Z,5.32
2023-01-29T19:18:39.104Z,5.63
2023-01-29T19:21:12.408Z,5.03
2023-01-29T19:23:41.244Z,5.05
2023-01-29T19:26:09.409Z,5.57
2023-01-29T19:28:37.284Z,5.10
2023-01-29T19:31:05.184Z,4.93
2023-01-29T19:33:33.549Z,5.38
2023-01-29T19:36:01.679Z,4.85
2023-01-29T19:38:33.608Z,5.63
2023-01-29T19:41:01.847Z,5.18
2023-01-29T19:43:33.464Z,5.30
2023-01-29T19:46:02.373Z,6.07
2023-01-29T19:48:30.558Z,4.88
2023-01-29T19:51:00.489Z,5.57
2023-01-29T19:53:29.766Z,5.80
2023-01-29T19:56:01.417Z,5.78
2023-01-29T19:58:30.027Z,5.70
2023-01-29T20:01:03.606Z,5.88
2023-01-29T20:03:31.535Z,5.97
2023-01-29T20:06:04.117Z,6.20
2023-01-29T20:08:32.547Z,6.00
2023-01-29T20:11:00.747Z,6.28
2023-01-29T20:13:28.617Z,6.97
2023-01-29T20:15:57.003Z,6.28
2023-01-29T20:18:24.734Z,6.28
2023-01-29T20:20:53.574Z,5.40
2023-01-29T20:23:36.570Z,6.60
2023-01-29T20:26:06.652Z,6.60
2023-01-29T20:28:35.169Z,6.65
2023-01-29T20:31:03.233Z,6.07
2023-01-29T20:33:32.101Z,6.32
2023-01-29T20:36:02.701Z,6.22
2023-01-29T20:38:31.989Z,6.20
2023-01-29T20:41:08.603Z,6.57
2023-01-29T20:43:36.741Z,6.40
2023-01-29T20:46:04.995Z,5.88
2023-01-29T20:48:33.412Z,5.72
2023-01-29T20:51:14.400Z,6.43
2023-01-29T20:53:45.499Z,6.93
2023-01-29T20:56:14.424Z,5.93
2023-01-29T20:58:44.172Z,6.47
2023-01-29T21:01:17.026Z,7.00
2023-01-29T21:03:45.110Z,5.72
2023-01-29T21:06:13.543Z,6.05
2023-01-29T21:08:41.679Z,5.75
2023-01-29T21:11:09.884Z,6.07
2023-01-29T21:13:38.668Z,6.07
2023-01-29T21:16:08.031Z,6.55
2023-01-29T21:18:36.090Z,6.10
2023-01-29T21:21:04.448Z,6.25
2023-01-29T21:23:32.202Z,6.43
2023-01-29T21:26:04.446Z,6.00
2023-01-29T21:28:33.012Z,7.10
2023-01-29T21:31:08.690Z,6.32
2023-01-29T21:33:36.785Z,5.72
2023-01-29T21:36:08.743Z,6.75
2023-01-29T21:38:37.163Z,5.72
2023-01-29T21:41:07.236Z,5.60
2023-01-29T21:43:35.043Z,5.28
2023-01-29T21:46:06.311Z,5.78
2023-01-29T21:48:34.204Z,6.45
2023-01-29T21:51:01.997Z,5.90
2023-01-29T21:53:29.774Z,4.82
2023-01-29T21:56:04.878Z,6.35
2023-01-29T21:58:33.069Z,5.75
2023-01-29T22:01:35.300Z,5.60
2023-01-29T22:03:48.598Z,6.63
2023-01-29T22:06:16.702Z,5.93
2023-01-29T22:08:45.366Z,5.63
2023-01-29T22:11:14.192Z,6.15
2023-01-29T22:13:42.071Z,5.75
2023-01-29T22:16:10.078Z,6.47
2023-01-29T22:18:37.763Z,5.97
2023-01-29T22:21:05.692Z,6.05
2023-01-29T22:23:33.856Z,5.20
2023-01-29T22:26:10.062Z,5.65
2023-01-29T22:28:37.923Z,6.00
2023-01-29T22:31:06.228Z,5.20
2023-01-29T22:33:34.354Z,6.40
2023-01-29T22:36:02.404Z,5.55
2023-01-29T22:38:30.534Z,5.32
2023-01-29T22:40:59.808Z,6.75
2023-01-29T22:43:27.712Z,6.22
2023-01-29T22:45:56.752Z,6.65
2023-01-29T22:48:28.849Z,6.18
2023-01-29T22:51:09.665Z,6.07
2023-01-29T22:53:56.217Z,5.78
2023-01-29T22:56:26.236Z,6.13
2023-01-29T22:58:55.428Z,6.50
2023-01-29T23:01:25.609Z,6.55
2023-01-29T23:03:53.873Z,6.95
2023-01-29T23:06:22.294Z,5.82
2023-01-29T23:08:50.834Z,6.45
2023-01-29T23:11:20.745Z,6.65
2023-01-29T23:13:50.776Z,7.00
2023-01-29T23:16:20.237Z,8.13
2023-01-29T23:18:51.365Z,7.35
2023-01-29T23:21:20.982Z,7.50
2023-01-29T23:23:49.214Z,6.88
2023-01-29T23:26:35.831Z,6.68
2023-01-29T23:29:04.104Z,7.63
2023-01-29T23:31:32.320Z,7.90
2023-01-29T23:34:00.373Z,7.75
2023-01-29T23:36:28.498Z,8.13
2023-01-29T23:38:56.537Z,7.45
2023-01-29T23:41:24.607Z,8.38
2023-01-29T23:43:53.325Z,7.70
2023-01-29T23:46:21.219Z,8.27
2023-01-29T23:48:49.090Z,7.60
2023-01-29T23:51:16.999Z,7.10
2023-01-29T23:53:44.748Z,7.63
2023-01-29T23:56:15.285Z,7.18
2023-01-29T23:58:43.228Z,8.93
